Time;durP1;ratioP1;P1;durP2;ratioP2;P2;SDS_P1;SDS_P2;PMS_P1;PMS_P2;Temp;Humidity;BMP_temperature;BMP_pressure;BME280_temperature;BME280_humidity;BME280_pressure;Samples;Min_cycle;Max_cycle;Signal;HPM_P1;HPM_P2
2021/12/08 00:01:42;;;;;;;34.97;12.52;;;;;;;-148.16;100.00;58328.31;5054728;28;20480;-62
2021/12/08 00:04:28;;;;;;;26.88;11.73;;;;;;;-148.16;100.00;58328.31;5054635;28;20044;-60
2021/12/08 00:07:14;;;;;;;26.95;11.73;;;;;;;-148.16;100.00;58328.31;5053749;28;20048;-60
2021/12/08 00:13:07;;;;;;;31.30;11.70;;;;;;;-148.16;100.00;58328.31;5054479;28;20037;-60
2021/12/08 00:15:56;;;;;;;23.52;10.52;;;;;;;-148.16;100.00;58328.31;5054141;28;20036;-60
2021/12/08 00:18:48;;;;;;;26.85;11.80;;;;;;;-148.16;100.00;58328.31;5054495;28;20395;-61
2021/12/08 00:21:33;;;;;;;27.15;10.45;;;;;;;-148.16;100.00;58328.31;5058825;28;20037;-61
2021/12/08 00:24:19;;;;;;;30.52;12.30;;;;;;;-148.16;100.00;58328.31;5054251;28;20071;-61
2021/12/08 00:27:06;;;;;;;27.92;11.38;;;;;;;-148.16;100.00;58328.31;5054421;28;20033;-61
2021/12/08 00:29:52;;;;;;;29.38;10.93;;;;;;;-148.16;100.00;58328.31;5054495;28;20041;-61
2021/12/08 00:32:37;;;;;;;31.98;11.18;;;;;;;-148.16;100.00;58328.31;5054330;28;20049;-60
2021/12/08 00:35:26;;;;;;;25.27;10.10;;;;;;;-148.16;100.00;58328.31;5027542;28;20457;-61
2021/12/08 00:38:17;;;;;;;25.52;10.93;;;;;;;-148.16;100.00;58328.31;5013726;28;20389;-61
2021/12/08 00:41:03;;;;;;;26.58;10.20;;;;;;;-148.16;100.00;58328.31;5027309;28;20046;-61
2021/12/08 00:43:49;;;;;;;28.58;10.80;;;;;;;-148.16;100.00;58328.31;5015049;28;20049;-61
2021/12/08 00:46:36;;;;;;;24.45;9.88;;;;;;;-148.16;100.00;58328.31;5013617;28;20034;-59
2021/12/08 00:49:23;;;;;;;28.42;10.95;;;;;;;-148.16;100.00;58328.31;5013498;28;20038;-54
2021/12/08 00:52:09;;;;;;;23.42;8.75;;;;;;;-148.16;100.00;58328.31;5041650;28;20045;-55
2021/12/08 00:54:56;;;;;;;28.73;10.27;;;;;;;-148.16;100.00;58328.31;5018361;28;20472;-62
2021/12/08 00:57:42;;;;;;;24.27;9.45;;;;;;;-148.16;100.00;58328.31;5018920;28;20050;-61
2021/12/08 01:00:32;;;;;;;23.05;9.55;;;;;;;-148.16;100.00;58328.31;5013972;28;20486;-61
2021/12/08 01:03:19;;;;;;;26.90;9.40;;;;;;;-148.16;100.00;58328.31;5014135;28;20485;-62
2021/12/08 01:06:05;;;;;;;21.95;9.25;;;;;;;-148.16;100.00;58328.31;5013246;28;20042;-61
2021/12/08 01:08:51;;;;;;;25.38;9.68;;;;;;;-148.16;100.00;58328.31;5013902;28;20046;-60
2021/12/08 01:11:38;;;;;;;27.13;10.63;;;;;;;-148.16;100.00;58328.31;5046568;28;20050;-58
2021/12/08 01:14:24;;;;;;;24.35;9.82;;;;;;;-148.16;100.00;58328.31;5013583;28;20488;-60
2021/12/08 01:17:10;;;;;;;24.73;9.88;;;;;;;-148.16;100.00;58328.31;5018495;28;20045;-60
2021/12/08 01:19:56;;;;;;;25.73;9.23;;;;;;;-148.16;100.00;58328.31;5018251;28;20368;-61
2021/12/08 01:22:43;;;;;;;28.75;10.35;;;;;;;-148.16;100.00;58328.31;5040023;28;20037;-60
2021/12/08 01:25:30;;;;;;;32.17;11.05;;;;;;;-148.16;100.00;58328.31;5013364;28;20038;-60
2021/12/08 01:28:19;;;;;;;24.05;9.93;;;;;;;-148.16;100.00;58328.31;5013394;28;20388;-60
2021/12/08 01:31:05;;;;;;;25.35;10.18;;;;;;;-148.16;100.00;58328.31;5026415;28;20045;-60
2021/12/08 01:33:51;;;;;;;23.35;10.50;;;;;;;-148.16;100.00;58328.31;5025392;28;20041;-60
2021/12/08 01:36:39;;;;;;;25.88;10.50;;;;;;;-148.16;100.00;58328.31;5032621;28;20042;-60
2021/12/08 01:39:25;;;;;;;25.95;10.00;;;;;;;-148.16;100.00;58328.31;5018022;28;20045;-61
2021/12/08 01:42:16;;;;;;;26.13;10.02;;;;;;;-148.16;100.00;58328.31;5032724;28;20041;-59
2021/12/08 01:48:12;;;;;;;25.42;9.25;;;;;;;-148.16;100.00;58328.31;5032338;28;20041;-60
2021/12/08 01:51:04;;;;;;;24.83;9.45;;;;;;;-148.16;100.00;58328.31;5031892;28;20044;-60
2021/12/08 01:53:52;;;;;;;22.58;8.70;;;;;;;-148.16;100.00;58328.31;5033092;28;20041;-60
2021/12/08 01:56:38;;;;;;;22.73;8.65;;;;;;;-148.16;100.00;58328.31;5032445;28;20045;-61
2021/12/08 01:59:25;;;;;;;24.02;9.77;;;;;;;-148.16;100.00;58328.31;5032562;28;20045;-60
2021/12/08 02:02:10;;;;;;;23.98;8.60;;;;;;;-148.16;100.00;58328.31;5032600;28;20049;-59
2021/12/08 02:04:56;;;;;;;24.65;8.23;;;;;;;-148.16;100.00;58328.31;5033041;28;20393;-56
2021/12/08 02:07:42;;;;;;;26.73;8.80;;;;;;;-148.16;100.00;58328.31;5031605;28;20045;-61
2021/12/08 02:10:28;;;;;;;19.45;8.43;;;;;;;-148.16;100.00;58328.31;5036667;28;20484;-59
2021/12/08 02:13:15;;;;;;;22.08;8.15;;;;;;;-148.16;100.00;58328.31;5031278;28;20388;-57
2021/12/08 02:16:02;;;;;;;16.80;7.38;;;;;;;-148.16;100.00;58328.31;5032498;28;20136;-61
2021/12/08 02:18:49;;;;;;;20.60;8.20;;;;;;;-148.16;100.00;58328.31;5032376;28;20033;-63
2021/12/08 02:21:39;;;;;;;19.83;7.97;;;;;;;-148.16;100.00;58328.31;5032268;28;20468;-61
2021/12/08 02:24:25;;;;;;;16.20;7.75;;;;;;;-148.16;100.00;58328.31;5032132;28;20441;-62
2021/12/08 02:27:11;;;;;;;21.17;8.60;;;;;;;-148.16;100.00;58328.31;5032645;28;20392;-60
2021/12/08 02:30:05;;;;;;;20.50;7.90;;;;;;;-148.16;100.00;58328.31;5032146;28;20041;-56
2021/12/08 02:48:32;;;;;;;14.57;6.47;;;;;;;-148.16;100.00;58328.31;5015786;28;20049;-61
2021/12/08 02:51:20;;;;;;;15.20;6.43;;;;;;;-148.16;100.00;58328.31;5032087;28;20049;-61
2021/12/08 02:54:06;;;;;;;19.73;7.22;;;;;;;-148.16;100.00;58328.31;5032047;28;20045;-60
2021/12/08 02:56:54;;;;;;;14.27;7.43;;;;;;;-148.16;100.00;58328.31;5032719;28;20049;-59
2021/12/08 02:59:41;;;;;;;18.17;7.00;;;;;;;-148.16;100.00;58328.31;5037254;28;20774;-60
2021/12/08 03:02:27;;;;;;;19.70;8.10;;;;;;;-148.16;100.00;58328.31;5030703;28;20477;-61
2021/12/08 03:05:12;;;;;;;19.35;7.78;;;;;;;-148.16;100.00;58328.31;5031980;28;20388;-61
2021/12/08 03:07:59;;;;;;;20.48;7.40;;;;;;;-148.16;100.00;58328.31;5031677;28;20042;-61
2021/12/08 03:10:49;;;;;;;16.90;6.75;;;;;;;-148.16;100.00;58328.31;5030258;28;20046;-60
2021/12/08 03:13:41;;;;;;;16.60;7.30;;;;;;;-148.16;100.00;58328.31;5031673;28;20033;-60
2021/12/08 03:16:27;;;;;;;17.45;7.65;;;;;;;-148.16;100.00;58328.31;5031940;28;20397;-62
2021/12/08 03:19:14;;;;;;;15.25;7.15;;;;;;;-148.16;100.00;58328.31;5031251;28;20038;-61
2021/12/08 03:22:02;;;;;;;16.88;6.90;;;;;;;-148.16;100.00;58328.31;5036773;28;20057;-63
2021/12/08 03:24:50;;;;;;;15.32;6.30;;;;;;;-148.16;100.00;58328.31;5032478;28;20046;-60
2021/12/08 03:27:44;;;;;;;17.05;7.07;;;;;;;-148.16;100.00;58328.31;5032337;28;20392;-60
2021/12/08 03:30:36;;;;;;;22.85;8.52;;;;;;;-148.16;100.00;58328.31;5022705;28;20042;-60
2021/12/08 03:33:22;;;;;;;18.85;7.07;;;;;;;-148.16;100.00;58328.31;5032529;28;20053;-60
2021/12/08 03:36:08;;;;;;;15.30;7.70;;;;;;;-148.16;100.00;58328.31;5031706;28;20042;-59
2021/12/08 03:38:54;;;;;;;19.13;8.23;;;;;;;-148.16;100.00;58328.31;5030537;28;20053;-60
2021/12/08 03:41:40;;;;;;;16.63;7.50;;;;;;;-148.16;100.00;58328.31;5036045;28;20045;-60
2021/12/08 03:44:27;;;;;;;16.88;8.02;;;;;;;-148.16;100.00;58328.31;5030136;28;20037;-61
2021/12/08 03:47:16;;;;;;;19.80;7.50;;;;;;;-148.16;100.00;58328.31;5016360;28;20045;-60
2021/12/08 03:50:05;;;;;;;15.82;6.82;;;;;;;-148.16;100.00;58328.31;5035977;28;20046;-62
2021/12/08 03:52:52;;;;;;;20.50;8.07;;;;;;;-148.16;100.00;58328.31;5022222;28;20049;-60
2021/12/08 03:55:37;;;;;;;15.98;7.13;;;;;;;-148.16;100.00;58328.31;5029815;28;20465;-61
2021/12/08 03:58:24;;;;;;;17.25;7.57;;;;;;;-148.16;100.00;58328.31;5025868;28;20049;-61
2021/12/08 04:01:10;;;;;;;12.30;6.32;;;;;;;-148.16;100.00;58328.31;5033667;28;20037;-60
2021/12/08 04:04:02;;;;;;;15.60;7.00;;;;;;;-148.16;100.00;58328.31;5031125;28;20038;-61
2021/12/08 04:06:51;;;;;;;15.32;6.43;;;;;;;-148.16;100.00;58328.31;5039592;28;20045;-61
2021/12/08 04:09:41;;;;;;;14.40;6.88;;;;;;;-148.16;100.00;58328.31;5034552;28;20045;-60
2021/12/08 04:12:26;;;;;;;13.85;6.10;;;;;;;-148.16;100.00;58328.31;5032698;28;20050;-61
2021/12/08 04:15:13;;;;;;;15.27;6.97;;;;;;;-148.16;100.00;58328.31;5034728;28;20045;-61
2021/12/08 04:17:59;;;;;;;18.13;7.25;;;;;;;-148.16;100.00;58328.31;5034501;28;20037;-61
2021/12/08 04:20:51;;;;;;;14.88;7.22;;;;;;;-148.16;100.00;58328.31;5033075;28;20042;-59
2021/12/08 04:23:39;;;;;;;;;;;;;;;-148.16;100.00;58328.31;5068738;28;20045;-59
2021/12/08 04:26:35;;;;;;;18.45;7.45;;;;;;;-148.16;100.00;58328.31;5034325;28;19917;-62
2021/12/08 04:29:26;;;;;;;17.70;7.85;;;;;;;-148.16;100.00;58328.31;5034445;28;20041;-57
2021/12/08 04:32:16;;;;;;;21.10;8.55;;;;;;;-148.16;100.00;58328.31;5033977;28;20041;-55
2021/12/08 04:35:07;;;;;;;19.90;8.38;;;;;;;-148.16;100.00;58328.31;5034372;28;20037;-61
2021/12/08 04:37:59;;;;;;;18.40;8.63;;;;;;;-148.16;100.00;58328.31;5060219;28;20050;-60
2021/12/08 04:41:03;;;;;;;20.55;9.05;;;;;;;-148.16;100.00;58328.31;5045696;28;20053;-61
2021/12/08 04:43:59;;;;;;;21.17;9.77;;;;;;;-148.16;100.00;58328.31;5032429;28;21277;-60
2021/12/08 04:47:16;;;;;;;21.65;9.32;;;;;;;-148.16;100.00;58328.31;5031153;28;20045;-60
2021/12/08 04:53:11;;;;;;;25.80;10.18;;;;;;;-148.16;100.00;58328.31;5032703;28;20045;-61
2021/12/08 05:07:56;;;;;;;21.00;9.05;;;;;;;-148.16;100.00;58328.31;5030443;28;20038;-61
2021/12/08 05:10:43;;;;;;;21.23;8.27;;;;;;;-148.16;100.00;58328.31;5026492;28;20078;-61
2021/12/08 05:13:28;;;;;;;17.40;7.90;;;;;;;-148.16;100.00;58328.31;5030028;28;20049;-59
2021/12/08 05:16:14;;;;;;;19.88;8.40;;;;;;;-148.16;100.00;58328.31;5028113;28;20037;-62
2021/12/08 05:19:04;;;;;;;17.85;7.72;;;;;;;-148.16;100.00;58328.31;5027227;28;20041;-58
2021/12/08 05:22:17;;;;;;;22.90;8.95;;;;;;;-148.16;100.00;58328.31;5030419;28;20061;-60
2021/12/08 05:25:09;;;;;;;20.02;8.13;;;;;;;-148.16;100.00;58328.31;5020685;28;20053;-60
2021/12/08 05:27:59;;;;;;;22.65;8.75;;;;;;;-148.16;100.00;58328.31;5030930;28;20052;-61
2021/12/08 05:31:00;;;;;;;22.35;9.95;;;;;;;-148.16;100.00;58328.31;5030348;28;20045;-62
2021/12/08 05:33:47;;;;;;;23.23;9.07;;;;;;;-148.16;100.00;58328.31;5029315;28;20389;-58
2021/12/08 05:36:34;;;;;;;24.80;9.73;;;;;;;-148.16;100.00;58328.31;5030716;28;20045;-60
2021/12/08 05:39:23;;;;;;;25.63;10.13;;;;;;;-148.16;100.00;58328.31;5020437;28;20038;-64
2021/12/08 05:42:17;;;;;;;21.00;8.35;;;;;;;-148.16;100.00;58328.31;5033026;28;20041;-61
2021/12/08 05:45:11;;;;;;;18.05;9.23;;;;;;;-148.16;100.00;58328.31;5032522;28;20497;-62
2021/12/08 05:47:58;;;;;;;24.52;9.18;;;;;;;-148.16;100.00;58328.31;5033124;28;20385;-61
2021/12/08 05:50:48;;;;;;;20.23;8.60;;;;;;;-148.16;100.00;58328.31;5033011;28;20049;-61
2021/12/08 05:53:38;;;;;;;22.63;7.40;;;;;;;-148.16;100.00;58328.31;5032179;28;20041;-64
2021/12/08 05:56:24;;;;;;;18.13;8.35;;;;;;;-148.16;100.00;58328.31;5048301;28;20053;-59
2021/12/08 05:59:11;;;;;;;15.85;6.32;;;;;;;-148.16;100.00;58328.31;5031820;28;20045;-41
2021/12/08 06:02:02;;;;;;;19.33;7.60;;;;;;;-148.16;100.00;58328.31;5032019;28;20365;-62
2021/12/08 06:04:49;;;;;;;15.43;7.75;;;;;;;-148.16;100.00;58328.31;5032244;28;20045;-61
2021/12/08 06:07:35;;;;;;;21.98;9.98;;;;;;;-148.16;100.00;58328.31;5013135;28;20046;-59
2021/12/08 06:10:27;;;;;;;17.45;8.25;;;;;;;-148.16;100.00;58328.31;5018409;28;20045;-61
2021/12/08 06:13:15;;;;;;;20.63;8.82;;;;;;;-148.16;100.00;58328.31;5021071;28;20262;-57
2021/12/08 06:16:03;;;;;;;25.23;9.60;;;;;;;-148.16;100.00;58328.31;5031833;28;20045;-62
2021/12/08 06:18:51;;;;;;;21.30;8.77;;;;;;;-148.16;100.00;58328.31;5031964;28;20045;-61
2021/12/08 06:21:39;;;;;;;25.00;9.55;;;;;;;-148.16;100.00;58328.31;5032933;28;20049;-62
2021/12/08 06:24:25;;;;;;;22.98;9.75;;;;;;;-148.16;100.00;58328.31;5031977;28;20033;-69
2021/12/08 06:27:12;;;;;;;27.70;10.77;;;;;;;-148.16;100.00;58328.31;5032387;28;20112;-60
2021/12/08 06:29:58;;;;;;;20.92;8.75;;;;;;;-148.16;100.00;58328.31;5032284;28;20041;-62
2021/12/08 06:32:45;;;;;;;20.05;9.32;;;;;;;-148.16;100.00;58328.31;5031841;28;20049;-63
2021/12/08 06:35:40;;;;;;;22.98;9.70;;;;;;;-148.16;100.00;58328.31;5032167;28;20037;-62
2021/12/08 06:38:27;;;;;;;22.17;9.85;;;;;;;-148.16;100.00;58328.31;5004612;28;20049;-63
2021/12/08 06:41:26;;;;;;;22.73;10.48;;;;;;;-148.16;100.00;58328.31;5031527;28;20452;-60
2021/12/08 06:44:17;;;;;;;23.67;9.70;;;;;;;-148.16;100.00;58328.31;5031540;28;20045;-62
2021/12/08 06:47:05;;;;;;;21.73;8.77;;;;;;;-148.16;100.00;58328.31;5036567;28;20472;-58
2021/12/08 06:49:54;;;;;;;24.60;11.35;;;;;;;-148.16;100.00;58328.31;5031329;28;20034;-64
2021/12/08 06:52:40;;;;;;;28.17;11.27;;;;;;;-148.16;100.00;58328.31;5030906;28;20049;-61
2021/12/08 06:55:35;;;;;;;26.33;10.88;;;;;;;-148.16;100.00;58328.31;5030678;28;20065;-62
2021/12/08 06:58:25;;;;;;;28.25;10.95;;;;;;;-148.16;100.00;58328.31;5031900;28;20053;-63
2021/12/08 07:04:53;;;;;;;23.35;10.43;;;;;;;-148.16;100.00;58328.31;5032210;28;20068;-60
2021/12/08 07:07:44;;;;;;;27.08;12.43;;;;;;;-148.16;100.00;58328.31;5028716;28;20041;-59
2021/12/08 07:10:35;;;;;;;24.08;10.45;;;;;;;-148.16;100.00;58328.31;5030755;28;20478;-61
2021/12/08 07:13:25;;;;;;;32.65;12.60;;;;;;;-148.16;100.00;58328.31;5029399;28;20468;-60
2021/12/08 07:16:18;;;;;;;27.90;10.75;;;;;;;-148.16;100.00;58328.31;5030840;28;20488;-62
2021/12/08 07:19:21;;;;;;;33.42;13.35;;;;;;;-148.16;100.00;58328.31;5029979;28;20049;-60
2021/12/08 07:22:12;;;;;;;23.73;10.93;;;;;;;-148.16;100.00;58328.31;5062912;28;20046;-61
2021/12/08 07:25:00;;;;;;;28.05;11.43;;;;;;;-148.16;100.00;58328.31;5030075;28;20041;-61
2021/12/08 07:27:47;;;;;;;23.88;10.77;;;;;;;-148.16;100.00;58328.31;5030408;28;20357;-57
2021/12/08 07:30:41;;;;;;;27.95;11.48;;;;;;;-148.16;100.00;58328.31;5030476;28;20049;-61
2021/12/08 07:33:28;;;;;;;32.13;12.85;;;;;;;-148.16;100.00;58328.31;5034135;28;20045;-59
2021/12/08 07:36:17;;;;;;;29.30;12.68;;;;;;;-148.16;100.00;58328.31;5035260;28;20045;-59
2021/12/08 07:39:07;;;;;;;30.92;11.23;;;;;;;-148.16;100.00;58328.31;5034048;28;20397;-59
2021/12/08 07:42:00;;;;;;;29.92;11.93;;;;;;;-148.16;100.00;58328.31;5034036;28;20346;-58
2021/12/08 07:44:53;;;;;;;29.27;11.60;;;;;;;-148.16;100.00;58328.31;5033712;28;20037;-61
2021/12/08 07:47:40;;;;;;;32.13;12.90;;;;;;;-148.16;100.00;58328.31;5033855;28;20447;-63
2021/12/08 07:50:52;;;;;;;28.65;11.93;;;;;;;-148.16;100.00;58328.31;5033759;28;20475;-65
2021/12/08 07:53:39;;;;;;;27.88;12.23;;;;;;;-148.16;100.00;58328.31;5034497;28;20041;-63
2021/12/08 07:56:26;;;;;;;30.25;12.07;;;;;;;-148.16;100.00;58328.31;5033481;28;20049;-64
2021/12/08 07:59:15;;;;;;;32.05;12.68;;;;;;;-148.16;100.00;58328.31;5034855;28;20045;-61
2021/12/08 08:02:07;;;;;;;26.42;11.73;;;;;;;-148.16;100.00;58328.31;5034798;28;20049;-62
2021/12/08 08:04:56;;;;;;;29.48;12.73;;;;;;;-148.16;100.00;58328.31;5044505;28;20037;-60
2021/12/08 08:07:43;;;;;;;28.42;11.82;;;;;;;-148.16;100.00;58328.31;5032855;28;20053;-62
2021/12/08 08:10:31;;;;;;;24.10;12.15;;;;;;;-148.16;100.00;58328.31;5035036;28;20041;-59
2021/12/08 08:13:21;;;;;;;30.83;13.48;;;;;;;-148.16;100.00;58328.31;5025082;28;20054;-57
2021/12/08 08:16:14;;;;;;;26.33;12.57;;;;;;;-148.16;100.00;58328.31;5033252;28;20034;-59
2021/12/08 08:19:09;;;;;;;30.45;13.85;;;;;;;-148.16;100.00;58328.31;5038246;28;20037;-58
2021/12/08 08:22:06;;;;;;;29.35;12.88;;;;;;;-148.16;100.00;58328.31;5032854;28;20400;-57
2021/12/08 08:24:55;;;;;;;30.48;13.15;;;;;;;-148.16;100.00;58328.31;5033449;28;20033;-61
2021/12/08 08:27:41;;;;;;;28.35;12.77;;;;;;;-148.16;100.00;58328.31;5033547;28;20037;-58
2021/12/08 08:30:32;;;;;;;31.15;14.00;;;;;;;-148.16;100.00;58328.31;5038159;28;20041;-62
2021/12/08 08:33:18;;;;;;;33.97;12.55;;;;;;;-148.16;100.00;58328.31;5033108;28;20050;-60
2021/12/08 08:36:07;;;;;;;31.23;13.57;;;;;;;-148.16;100.00;58328.31;5033564;28;20373;-60
2021/12/08 08:39:22;;;;;;;29.77;13.57;;;;;;;-148.16;100.00;58328.31;5031716;28;20037;-61
2021/12/08 08:42:13;;;;;;;32.83;13.95;;;;;;;-148.16;100.00;58328.31;5060226;28;20278;-61
2021/12/08 08:44:59;;;;;;;29.83;13.63;;;;;;;-148.16;100.00;58328.31;5030148;28;20042;-61
2021/12/08 08:47:52;;;;;;;31.02;13.55;;;;;;;-148.16;100.00;58328.31;5032952;28;20041;-60
2021/12/08 08:50:47;;;;;;;36.05;14.77;;;;;;;-148.16;100.00;58328.31;5050419;28;20041;-61
2021/12/08 08:53:36;;;;;;;36.00;15.77;;;;;;;-148.16;100.00;58328.31;5033660;28;20041;-62
2021/12/08 08:56:30;;;;;;;32.67;14.27;;;;;;;-148.16;100.00;58328.31;5034051;28;20045;-61
2021/12/08 08:59:22;;;;;;;38.25;15.88;;;;;;;-148.16;100.00;58328.31;5052569;28;20049;-58
2021/12/08 09:02:12;;;;;;;36.95;15.77;;;;;;;-148.16;100.00;58328.31;5024609;28;20049;-57
2021/12/08 09:05:01;;;;;;;37.38;14.70;;;;;;;-148.16;100.00;58328.31;5038260;28;20404;-58
2021/12/08 09:07:52;;;;;;;40.75;16.70;;;;;;;-148.16;100.00;58328.31;5024746;28;20049;-57
2021/12/08 09:10:50;;;;;;;38.63;15.88;;;;;;;-148.16;100.00;58328.31;5033100;28;20041;-58
2021/12/08 09:13:46;;;;;;;38.78;16.70;;;;;;;-148.16;100.00;58328.31;5033221;28;20053;-61
2021/12/08 09:16:53;;;;;;;40.40;16.25;;;;;;;-148.16;100.00;58328.31;5031930;28;20396;-59
2021/12/08 09:19:44;;;;;;;42.25;16.77;;;;;;;-148.16;100.00;58328.31;5037949;28;20042;-58
2021/12/08 09:22:41;;;;;;;44.55;18.55;;;;;;;-148.16;100.00;58328.31;5032999;28;20384;-58
2021/12/08 09:25:53;;;;;;;43.45;18.38;;;;;;;-148.16;100.00;58328.31;5033251;28;20037;-60
2021/12/08 09:29:04;;;;;;;45.85;16.70;;;;;;;-148.16;100.00;58328.31;5037811;28;20042;-59
2021/12/08 09:31:56;;;;;;;44.10;17.95;;;;;;;-148.16;100.00;58328.31;5022564;28;20041;-57
2021/12/08 09:34:54;;;;;;;46.35;17.80;;;;;;;-148.16;100.00;58328.31;5031056;28;20049;-60
2021/12/08 09:37:46;;;;;;;40.35;17.10;;;;;;;-148.16;100.00;58328.31;5019943;28;20045;-58
2021/12/08 09:40:41;;;;;;;40.00;16.17;;;;;;;-148.16;100.00;58328.31;5038549;28;20038;-60
2021/12/08 09:43:36;;;;;;;44.47;17.33;;;;;;;-148.16;100.00;58328.31;5030939;28;20481;-59
2021/12/08 09:46:43;;;;;;;46.95;19.85;;;;;;;-148.16;100.00;58328.31;5023320;28;20037;-69
2021/12/08 09:49:29;;;;;;;49.28;22.30;;;;;;;-148.16;100.00;58328.31;5032463;28;20042;-69
2021/12/08 09:52:19;;;;;;;46.42;18.17;;;;;;;-148.16;100.00;58328.31;5031196;28;20042;-69
2021/12/08 09:55:08;;;;;;;43.00;18.48;;;;;;;-148.16;100.00;58328.31;5029870;28;20046;-74
2021/12/08 09:57:56;;;;;;;41.08;16.50;;;;;;;-148.16;100.00;58328.31;5032027;28;20037;-70
2021/12/08 10:00:45;;;;;;;38.05;16.23;;;;;;;-148.16;100.00;58328.31;5034940;28;20041;-69
2021/12/08 10:03:33;;;;;;;38.67;15.57;;;;;;;-148.16;100.00;58328.31;5030926;28;20049;-71
2021/12/08 10:06:24;;;;;;;37.42;15.15;;;;;;;-148.16;100.00;58328.31;5033405;28;20816;-71
2021/12/08 10:09:20;;;;;;;41.92;16.63;;;;;;;-148.16;100.00;58328.31;5037549;28;20384;-73
2021/12/08 10:12:06;;;;;;;37.40;15.90;;;;;;;-148.16;100.00;58328.31;5031313;28;20045;-68
2021/12/08 10:14:52;;;;;;;39.50;16.35;;;;;;;-148.16;100.00;58328.31;5032144;28;20045;-65
2021/12/08 10:17:38;;;;;;;40.53;15.98;;;;;;;-148.16;100.00;58328.31;5036827;28;20456;-66
2021/12/08 10:20:37;;;;;;;40.28;16.52;;;;;;;-148.16;100.00;58328.31;5036771;28;20041;-66
2021/12/08 10:23:34;;;;;;;40.17;16.13;;;;;;;-148.16;100.00;58328.31;5036685;28;20037;-69
2021/12/08 10:26:25;;;;;;;39.83;16.80;;;;;;;-148.16;100.00;58328.31;5031762;28;20029;-67
2021/12/08 10:29:11;;;;;;;43.80;17.33;;;;;;;-148.16;100.00;58328.31;5033796;28;20045;-68
2021/12/08 10:31:59;;;;;;;40.35;17.48;;;;;;;-148.16;100.00;58328.31;5031346;28;20037;-67
2021/12/08 10:35:04;;;;;;;36.58;15.15;;;;;;;-148.16;100.00;58328.31;5032078;28;20459;-66
2021/12/08 10:38:01;;;;;;;42.30;16.67;;;;;;;-148.16;100.00;58328.31;5032200;28;20092;-67
2021/12/08 10:41:03;;;;;;;40.25;17.25;;;;;;;-148.16;100.00;58328.31;5031432;28;20041;-63
2021/12/08 10:44:01;;;;;;;36.80;17.05;;;;;;;-148.16;100.00;58328.31;5031443;28;20037;-67
2021/12/08 10:46:51;;;;;;;38.92;18.02;;;;;;;-148.16;100.00;58328.31;5011061;28;20472;-66
2021/12/08 10:56:06;;;;;;;34.85;15.93;;;;;;;-148.16;100.00;58328.31;5012213;28;20050;-68
2021/12/08 10:58:57;;;;;;;25.48;13.27;;;;;;;-148.16;100.00;58328.31;5011837;28;20649;-65
2021/12/08 11:01:43;;;;;;;30.47;12.50;;;;;;;-148.16;100.00;58328.31;5012012;28;20058;-68
2021/12/08 11:04:32;;;;;;;28.77;14.25;;;;;;;-148.16;100.00;58328.31;5011726;28;20045;-69
2021/12/08 11:07:18;;;;;;;35.50;13.65;;;;;;;-148.16;100.00;58328.31;5013318;28;20465;-68
2021/12/08 11:10:18;;;;;;;32.85;14.23;;;;;;;-148.16;100.00;58328.31;5014451;28;20388;-67
2021/12/08 11:13:05;;;;;;;28.58;12.80;;;;;;;-148.16;100.00;58328.31;5015339;28;20038;-65
2021/12/08 11:16:10;;;;;;;26.13;12.70;;;;;;;-148.16;100.00;58328.31;5019988;28;20042;-64
2021/12/08 11:19:10;;;;;;;29.17;13.02;;;;;;;-148.16;100.00;58328.31;5042144;28;20046;-65
2021/12/08 11:22:06;;;;;;;28.50;12.98;;;;;;;-148.16;100.00;58328.31;5042491;28;20045;-70
2021/12/08 11:24:57;;;;;;;34.50;15.85;;;;;;;-148.16;100.00;58328.31;5023662;28;20046;-65
2021/12/08 11:27:43;;;;;;;34.30;15.10;;;;;;;-148.16;100.00;58328.31;5039477;28;20045;-68
2021/12/08 11:30:32;;;;;;;29.15;13.73;;;;;;;-148.16;100.00;58328.31;5031747;28;20037;-66
2021/12/08 11:33:22;;;;;;;33.28;16.98;;;;;;;-148.16;100.00;58328.31;5038944;28;20045;-67
2021/12/08 11:36:12;;;;;;;32.00;15.10;;;;;;;-148.16;100.00;58328.31;5032883;28;20046;-68
2021/12/08 11:39:07;;;;;;;35.63;15.88;;;;;;;-148.16;100.00;58328.31;5032411;28;20148;-70
2021/12/08 11:42:16;;;;;;;35.28;15.68;;;;;;;-148.16;100.00;58328.31;5031348;28;20049;-67
2021/12/08 11:45:12;;;;;;;33.53;15.82;;;;;;;-148.16;100.00;58328.31;5016768;28;20037;-67
2021/12/08 11:47:58;;;;;;;33.33;16.08;;;;;;;-148.16;100.00;58328.31;5038831;28;20041;-64
2021/12/08 11:50:44;;;;;;;36.13;15.05;;;;;;;-148.16;100.00;58328.31;5034069;28;20037;-66
2021/12/08 11:53:30;;;;;;;28.83;13.80;;;;;;;-148.16;100.00;58328.31;5033228;28;20041;-65
2021/12/08 11:56:39;;;;;;;32.30;13.88;;;;;;;-148.16;100.00;58328.31;5026582;28;20049;-68
2021/12/08 11:59:25;;;;;;;36.13;14.85;;;;;;;-148.16;100.00;58328.31;5033990;28;20084;-64
2021/12/08 12:02:14;;;;;;;36.97;13.77;;;;;;;-148.16;100.00;58328.31;5032821;28;20057;-66
2021/12/08 12:05:03;;;;;;;34.75;15.50;;;;;;;-148.16;100.00;58328.31;5027380;28;20042;-66
2021/12/08 12:07:50;;;;;;;30.17;12.98;;;;;;;-148.16;100.00;58328.31;5014278;28;20041;-66
2021/12/08 12:10:39;;;;;;;33.78;14.85;;;;;;;-148.16;100.00;58328.31;5014412;28;20439;-67
2021/12/08 12:13:25;;;;;;;29.40;13.85;;;;;;;-148.16;100.00;58328.31;5014461;28;20046;-68
2021/12/08 12:16:12;;;;;;;32.67;13.80;;;;;;;-148.16;100.00;58328.31;5033040;28;20053;-67
2021/12/08 12:19:03;;;;;;;30.58;14.13;;;;;;;-148.16;100.00;58328.31;5038660;28;20045;-64
2021/12/08 12:22:39;;;;;;;30.13;13.75;;;;;;;-148.16;100.00;58328.31;5032108;28;20034;-64
2021/12/08 12:25:56;;;;;;;26.13;13.02;;;;;;;-148.16;100.00;58328.31;5030748;28;20042;-65
2021/12/08 12:29:00;;;;;;;29.60;12.63;;;;;;;-148.16;100.00;58328.31;5013902;28;20046;-62
2021/12/08 12:32:07;;;;;;;28.08;12.45;;;;;;;-148.16;100.00;58328.31;5019103;28;20385;-64
2021/12/08 12:35:09;;;;;;;25.20;11.75;;;;;;;-148.16;100.00;58328.31;5037512;28;20040;-65
2021/12/08 12:38:05;;;;;;;22.48;9.98;;;;;;;-148.16;100.00;58328.31;5058297;28;20040;-67
2021/12/08 12:40:51;;;;;;;29.30;11.95;;;;;;;-148.16;100.00;58328.31;5052047;28;20041;-67
2021/12/08 12:43:39;;;;;;;26.35;11.85;;;;;;;-148.16;100.00;58328.31;5044102;28;20045;-67
2021/12/08 12:46:24;;;;;;;23.75;11.57;;;;;;;-148.16;100.00;58328.31;5053034;28;20033;-67
2021/12/08 12:49:22;;;;;;;23.98;11.13;;;;;;;-148.16;100.00;58328.31;5043871;28;20045;-62
2021/12/08 12:52:13;;;;;;;21.92;11.20;;;;;;;-148.16;100.00;58328.31;5031397;28;20037;-64
2021/12/08 12:55:29;;;;;;;25.17;11.73;;;;;;;-148.16;100.00;58328.31;5023762;28;20045;-65
2021/12/08 12:58:17;;;;;;;16.50;8.13;;;;;;;-148.16;100.00;58328.31;5030283;28;20041;-64
2021/12/08 13:01:09;;;;;;;21.42;8.32;;;;;;;-148.16;100.00;58328.31;5031763;28;20046;-64
2021/12/08 13:04:05;;;;;;;18.60;8.38;;;;;;;-148.16;100.00;58328.31;5023561;28;20041;-68
2021/12/08 13:07:02;;;;;;;19.92;8.25;;;;;;;-148.16;100.00;58328.31;5032915;28;20041;-68
2021/12/08 13:09:56;;;;;;;18.13;8.05;;;;;;;-148.16;100.00;58328.31;5033876;28;20041;-65
2021/12/08 13:12:49;;;;;;;22.75;9.68;;;;;;;-148.16;100.00;58328.31;5032916;28;20049;-72
2021/12/08 13:15:34;;;;;;;20.42;10.07;;;;;;;-148.16;100.00;58328.31;5032527;28;20049;-70
2021/12/08 13:18:23;;;;;;;20.63;10.52;;;;;;;-148.16;100.00;58328.31;5038157;28;20041;-69
2021/12/08 13:21:10;;;;;;;20.90;10.32;;;;;;;-148.16;100.00;58328.31;5037456;28;20037;-66
2021/12/08 13:23:56;;;;;;;21.85;10.02;;;;;;;-148.16;100.00;58328.31;5033306;28;20045;-69
2021/12/08 13:26:48;;;;;;;22.42;10.13;;;;;;;-148.16;100.00;58328.31;5031623;28;20061;-69
2021/12/08 13:29:38;;;;;;;19.55;10.60;;;;;;;-148.16;100.00;58328.31;5032583;28;20041;-67